Time;durP1;ratioP1;P1;durP2;ratioP2;P2;SDS_P1;SDS_P2;PMS_P1;PMS_P2;Temp;Humidity;BMP_temperature;BMP_pressure;BME280_temperature;BME280_humidity;BME280_pressure;Samples;Min_cycle;Max_cycle;Signal;HPM_P1;HPM_P2
2022/08/17 00:01:03;;;;;;;74.82;62.78;;;24.60;68.40;;;;;;4944945;28;95950;-49
2022/08/17 00:03:36;;;;;;;73.93;61.90;;;24.70;68.80;;;;;;4953290;28;95043;-45
2022/08/17 00:06:24;;;;;;;75.55;62.42;;;24.50;69.50;;;;;;4950089;28;96106;-46
2022/08/17 00:08:55;;;;;;;74.68;63.17;;;24.30;70.20;;;;;;4946480;28;95163;-45
2022/08/17 00:11:27;;;;;;;74.75;61.75;;;24.00;71.50;;;;;;4947004;28;96022;-46
2022/08/17 00:14:00;;;;;;;74.05;61.92;;;23.90;72.10;;;;;;4943916;28;98046;-46
2022/08/17 00:16:33;;;;;;;77.47;63.03;;;24.00;72.40;;;;;;4950019;28;96307;-45
2022/08/17 00:19:04;;;;;;;70.95;60.17;;;24.00;72.20;;;;;;4944136;28;99890;-47
2022/08/17 00:21:31;;;;;;;73.38;62.08;;;24.00;72.00;;;;;;4946948;28;96669;-49
2022/08/17 00:23:57;;;;;;;71.72;60.97;;;24.10;72.00;;;;;;4950086;28;95079;-48
2022/08/17 00:26:24;;;;;;;78.88;62.70;;;24.10;71.60;;;;;;4949302;28;95078;-45
2022/08/17 00:28:50;;;;;;;73.38;61.78;;;24.10;71.20;;;;;;4951071;28;95125;-48
2022/08/17 00:31:15;;;;;;;74.10;62.95;;;24.20;71.10;;;;;;4949900;28;96420;-50
2022/08/17 00:33:42;;;;;;;75.65;62.60;;;24.30;70.80;;;;;;4947972;28;97845;-48
2022/08/17 00:36:09;;;;;;;72.65;61.53;;;24.20;70.90;;;;;;4956651;28;94772;-46
2022/08/17 00:38:35;;;;;;;74.45;63.13;;;24.20;70.60;;;;;;4947279;28;96024;-47
2022/08/17 00:41:05;;;;;;;76.00;63.80;;;24.20;70.60;;;;;;4937578;28;95963;-46
2022/08/17 00:43:41;;;;;;;73.32;61.55;;;24.20;71.40;;;;;;4952216;28;99363;-49
2022/08/17 00:46:11;;;;;;;75.47;63.55;;;24.20;70.70;;;;;;4956676;28;94732;-45
2022/08/17 00:48:37;;;;;;;76.22;64.30;;;24.30;70.50;;;;;;4948753;28;95128;-48
2022/08/17 00:51:14;;;;;;;76.40;63.83;;;24.20;70.50;;;;;;4955760;28;95941;-47
2022/08/17 00:53:43;;;;;;;75.47;64.15;;;24.20;71.30;;;;;;4953709;28;95643;-46
2022/08/17 00:56:12;;;;;;;76.78;65.38;;;24.10;71.40;;;;;;4944250;28;96567;-47
2022/08/17 00:58:38;;;;;;;77.45;64.50;;;24.10;71.50;;;;;;4955348;28;95138;-47
2022/08/17 01:01:07;;;;;;;74.88;62.90;;;24.10;71.10;;;;;;4949769;28;95982;-45
2022/08/17 01:03:35;;;;;;;75.85;62.65;;;24.10;70.50;;;;;;4950177;28;95086;-47
2022/08/17 01:06:03;;;;;;;74.75;64.13;;;24.10;70.50;;;;;;4946854;28;96806;-46
2022/08/17 01:08:30;;;;;;;75.38;63.50;;;24.20;70.20;;;;;;4949430;28;95243;-47
2022/08/17 01:11:00;;;;;;;78.75;64.38;;;24.30;70.20;;;;;;4950695;28;95868;-46
2022/08/17 01:13:33;;;;;;;76.93;66.05;;;24.30;70.70;;;;;;4947544;28;94168;-47
2022/08/17 01:16:18;;;;;;;78.18;65.93;;;24.20;71.00;;;;;;4943177;28;97037;-47
2022/08/17 01:18:47;;;;;;;76.25;65.32;;;24.10;71.30;;;;;;4953792;28;95434;-46
2022/08/17 01:21:25;;;;;;;76.40;65.30;;;24.10;71.60;;;;;;4950887;28;96240;-47
2022/08/17 01:23:51;;;;;;;77.85;65.97;;;24.10;72.20;;;;;;4946936;28;99961;-47
2022/08/17 01:26:17;;;;;;;77.70;65.47;;;24.10;70.60;;;;;;4947885;28;96019;-49
2022/08/17 01:28:43;;;;;;;77.03;63.75;;;24.20;70.60;;;;;;4956452;28;98617;-47
2022/08/17 01:31:09;;;;;;;78.15;66.57;;;24.30;69.90;;;;;;4953672;28;95316;-46
2022/08/17 01:33:35;;;;;;;77.78;64.88;;;24.40;69.60;;;;;;4944363;28;96071;-46
2022/08/17 01:36:02;;;;;;;75.25;64.70;;;24.40;69.90;;;;;;4951819;28;98995;-47
2022/08/17 01:38:30;;;;;;;81.30;67.43;;;24.30;70.30;;;;;;4948622;28;94261;-47
2022/08/17 01:41:01;;;;;;;83.65;69.75;;;24.40;70.70;;;;;;4943286;28;98030;-46
2022/08/17 01:43:36;;;;;;;77.45;65.80;;;24.30;71.50;;;;;;4946845;28;94948;-47
2022/08/17 01:46:02;;;;;;;79.07;67.28;;;24.30;71.80;;;;;;4950772;28;97621;-45
2022/08/17 01:48:35;;;;;;;77.95;67.55;;;24.40;70.70;;;;;;4949430;28;99700;-49
2022/08/17 01:51:01;;;;;;;84.20;72.00;;;24.40;70.60;;;;;;4950090;28;96217;-47
2022/08/17 01:53:33;;;;;;;88.85;73.40;;;24.30;72.30;;;;;;4952355;28;96659;-46
2022/08/17 01:56:20;;;;;;;88.55;73.63;;;24.10;74.10;;;;;;4950391;28;95139;-47
2022/08/17 01:58:46;;;;;;;76.80;64.60;;;23.80;75.50;;;;;;4947934;28;96239;-47
2022/08/17 02:01:13;;;;;;;82.85;68.65;;;23.70;74.90;;;;;;4944120;28;94765;-48
2022/08/17 02:03:41;;;;;;;81.15;68.78;;;24.00;74.50;;;;;;4952544;28;94379;-46
2022/08/17 02:06:07;;;;;;;86.90;72.88;;;24.20;72.70;;;;;;4947014;28;96553;-44
2022/08/17 02:08:34;;;;;;;88.15;73.45;;;24.30;71.70;;;;;;4950691;28;95664;-48
2022/08/17 02:11:02;;;;;;;83.05;69.70;;;24.40;72.50;;;;;;4946915;28;97274;-46
2022/08/17 02:13:29;;;;;;;84.75;71.53;;;24.30;72.40;;;;;;4953942;28;95965;-51
2022/08/17 02:15:56;;;;;;;89.18;75.75;;;24.40;72.50;;;;;;4950518;28;96859;-46
2022/08/17 02:18:22;;;;;;;93.72;76.20;;;24.40;71.20;;;;;;4953353;28;95351;-48
2022/08/17 02:20:48;;;;;;;97.72;82.75;;;24.50;71.30;;;;;;4950079;28;95239;-51
2022/08/17 02:23:14;;;;;;;101.18;82.28;;;24.40;72.00;;;;;;4961847;28;94895;-46
2022/08/17 02:25:42;;;;;;;100.20;86.28;;;24.30;73.30;;;;;;4951844;28;95869;-45
2022/08/17 02:28:08;;;;;;;111.53;91.10;;;24.20;73.60;;;;;;4947131;28;94455;-46
2022/08/17 02:30:34;;;;;;;100.47;83.45;;;24.20;74.30;;;;;;4944653;28;96404;-46
2022/08/17 02:33:00;;;;;;;111.90;92.82;;;24.10;74.90;;;;;;4945706;28;95144;-44
2022/08/17 02:35:25;;;;;;;109.13;92.90;;;24.00;75.60;;;;;;4946070;28;96528;-46
2022/08/17 02:37:51;;;;;;;109.65;91.15;;;24.00;76.40;;;;;;4950619;28;95085;-44
2022/08/17 02:40:17;;;;;;;116.07;96.38;;;23.90;76.70;;;;;;4948745;28;95292;-46
2022/08/17 02:42:44;;;;;;;120.13;99.57;;;23.80;76.80;;;;;;4952319;28;95259;-48
2022/08/17 02:45:16;;;;;;;106.35;91.50;;;23.60;78.30;;;;;;4954300;28;95034;-48
2022/08/17 02:47:42;;;;;;;124.35;98.03;;;23.50;79.40;;;;;;4946550;28;96256;-47
2022/08/17 02:50:11;;;;;;;118.00;97.95;;;23.50;80.00;;;;;;4948355;28;95532;-45
2022/08/17 02:52:38;;;;;;;96.70;86.07;;;23.30;79.40;;;;;;4950695;28;95061;-47
2022/08/17 02:55:06;;;;;;;117.32;97.30;;;23.20;79.20;;;;;;4950763;28;94800;-46
2022/08/17 02:57:32;;;;;;;110.50;93.32;;;23.50;78.40;;;;;;4948512;28;95929;-45
2022/08/17 02:59:58;;;;;;;120.65;99.85;;;23.60;78.50;;;;;;4950221;28;97516;-47
2022/08/17 03:02:23;;;;;;;114.82;96.50;;;23.50;78.70;;;;;;4948197;28;96876;-46
2022/08/17 03:04:49;;;;;;;116.03;96.57;;;23.30;79.20;;;;;;4952662;28;95131;-46
2022/08/17 03:07:15;;;;;;;103.55;90.00;;;23.20;80.20;;;;;;4952149;28;95456;-46
2022/08/17 03:09:41;;;;;;;111.43;93.93;;;23.30;79.30;;;;;;4955549;28;95069;-48
2022/08/17 03:12:10;;;;;;;98.75;85.05;;;23.50;79.10;;;;;;4949387;28;96567;-46
2022/08/17 03:14:40;;;;;;;105.40;88.75;;;23.40;78.50;;;;;;4947403;28;94824;-48
2022/08/17 03:17:06;;;;;;;106.78;88.82;;;23.40;77.70;;;;;;4948524;28;99876;-48
2022/08/17 03:19:32;;;;;;;94.30;82.32;;;23.40;79.20;;;;;;4957732;28;96156;-47
2022/08/17 03:21:58;;;;;;;103.85;89.22;;;23.40;79.30;;;;;;4955431;28;95254;-46
2022/08/17 03:24:24;;;;;;;106.55;91.97;;;23.50;78.80;;;;;;4949490;28;96362;-47
2022/08/17 03:26:49;;;;;;;106.07;91.78;;;23.50;78.70;;;;;;4952859;28;101909;-48
2022/08/17 03:29:18;;;;;;;108.95;92.13;;;23.40;78.50;;;;;;4946331;28;95451;-49
2022/08/17 03:31:47;;;;;;;96.53;81.03;;;23.20;79.70;;;;;;4941631;28;94980;-48
2022/08/17 03:34:14;;;;;;;105.55;88.90;;;23.30;79.10;;;;;;4946803;28;95106;-48
2022/08/17 03:36:40;;;;;;;95.68;81.22;;;23.50;78.60;;;;;;4951296;28;96763;-51
2022/08/17 03:39:06;;;;;;;92.95;81.85;;;23.50;79.00;;;;;;4950330;28;96066;-49
2022/08/17 03:41:32;;;;;;;101.32;86.95;;;23.50;78.50;;;;;;4943888;28;95360;-48
2022/08/17 03:43:57;;;;;;;102.70;88.80;;;23.60;78.80;;;;;;4945762;28;95352;-50
2022/08/17 03:57:23;;;;;;;95.78;81.65;;;23.70;77.90;;;;;;4947259;28;98881;-49
2022/08/17 03:59:49;;;;;;;95.80;81.88;;;23.60;77.20;;;;;;4948678;28;98328;-48
2022/08/17 04:02:23;;;;;;;96.28;83.38;;;23.70;77.40;;;;;;4948533;28;98838;-48
2022/08/17 04:04:53;;;;;;;98.43;83.45;;;23.70;76.90;;;;;;4945688;28;95480;-50
2022/08/17 04:07:24;;;;;;;101.32;88.30;;;23.80;76.70;;;;;;4951326;28;95863;-48
2022/08/17 04:09:50;;;;;;;99.97;85.35;;;23.80;76.50;;;;;;4943550;28;100606;-50
2022/08/17 04:12:18;;;;;;;103.28;85.07;;;23.60;77.30;;;;;;4943729;28;95102;-50
2022/08/17 04:14:44;;;;;;;90.55;77.90;;;23.40;78.00;;;;;;4948977;28;97240;-48
2022/08/17 04:17:10;;;;;;;88.85;76.38;;;23.30;77.80;;;;;;4953765;28;95083;-48
2022/08/17 04:19:36;;;;;;;86.88;75.25;;;23.50;77.10;;;;;;4946429;28;95499;-48
2022/08/17 04:22:04;;;;;;;86.20;73.60;;;23.60;76.50;;;;;;4950516;28;95767;-48
2022/08/17 04:24:30;;;;;;;86.45;75.05;;;23.60;76.20;;;;;;4949832;28;96965;-48
2022/08/17 04:26:56;;;;;;;86.97;74.03;;;23.60;75.40;;;;;;4948606;28;94697;-51
2022/08/17 04:29:24;;;;;;;85.50;71.88;;;23.50;75.50;;;;;;4944385;28;95169;-49
2022/08/17 04:31:51;;;;;;;82.15;70.82;;;23.40;75.50;;;;;;4944014;28;95808;-50
2022/08/17 04:34:18;;;;;;;80.15;68.53;;;23.40;75.80;;;;;;4951553;28;95097;-50
2022/08/17 04:36:43;;;;;;;83.60;70.80;;;23.40;75.00;;;;;;4956728;28;95054;-46
2022/08/17 04:39:09;;;;;;;80.35;68.72;;;23.40;75.50;;;;;;4952863;28;98322;-47
2022/08/17 04:44:19;;;;;;;85.38;71.10;;;23.20;76.70;;;;;;4955667;28;98693;-46
2022/08/17 04:46:45;;;;;;;79.07;67.60;;;23.00;78.40;;;;;;4945996;28;95433;-46
2022/08/17 04:49:11;;;;;;;77.82;67.55;;;23.00;78.00;;;;;;4946784;28;95366;-50
2022/08/17 04:51:40;;;;;;;82.30;69.43;;;23.10;77.30;;;;;;4953068;28;94737;-52
2022/08/17 04:54:12;;;;;;;78.50;64.97;;;23.30;76.40;;;;;;4954767;28;95091;-51
2022/08/17 04:56:38;;;;;;;87.50;70.70;;;23.30;75.60;;;;;;4950061;28;95066;-47
2022/08/17 04:59:07;;;;;;;82.60;69.93;;;23.30;75.80;;;;;;4945027;28;94931;-51
2022/08/17 05:01:35;;;;;;;79.22;67.80;;;23.10;76.80;;;;;;4940696;28;95437;-47
2022/08/17 05:04:07;;;;;;;81.97;68.25;;;23.10;77.50;;;;;;4955782;28;95884;-50
2022/08/17 05:06:32;;;;;;;80.97;68.47;;;23.10;76.70;;;;;;4949632;28;99006;-48
2022/08/17 05:08:59;;;;;;;82.50;69.03;;;22.90;77.60;;;;;;4945096;28;95653;-49
2022/08/17 05:11:25;;;;;;;81.75;70.85;;;22.90;78.50;;;;;;4947118;28;96263;-49
2022/08/17 05:13:52;;;;;;;84.45;72.20;;;22.70;77.90;;;;;;4957719;28;95107;-49
2022/08/17 05:16:19;;;;;;;83.97;74.20;;;22.60;78.40;;;;;;4947864;28;99638;-50
2022/08/17 05:18:45;;;;;;;89.70;75.07;;;22.60;78.70;;;;;;4948209;28;95552;-50
2022/08/17 05:21:12;;;;;;;88.95;74.90;;;22.50;79.20;;;;;;4950325;28;95067;-50
2022/08/17 05:23:39;;;;;;;87.50;75.20;;;22.40;79.10;;;;;;4947220;28;95455;-49
2022/08/17 05:26:05;;;;;;;87.18;74.03;;;22.40;79.70;;;;;;4943085;28;95306;-48
2022/08/17 05:28:31;;;;;;;90.15;78.60;;;22.50;79.80;;;;;;4951562;28;96485;-51
2022/08/17 05:31:00;;;;;;;93.88;79.13;;;22.50;79.70;;;;;;4960265;28;95621;-47
2022/08/17 05:33:29;;;;;;;92.10;80.68;;;22.50;79.80;;;;;;4955113;28;95588;-51
2022/08/17 05:35:57;;;;;;;94.40;81.28;;;22.40;80.90;;;;;;4946454;28;97848;-49
2022/08/17 05:38:27;;;;;;;95.57;81.60;;;22.30;81.20;;;;;;4951036;28;95233;-49
2022/08/17 05:40:54;;;;;;;94.82;80.70;;;22.30;81.60;;;;;;4954944;28;95107;-47
2022/08/17 05:43:29;;;;;;;97.60;80.40;;;22.30;81.10;;;;;;4954553;28;94679;-46
2022/08/17 05:46:02;;;;;;;104.38;88.13;;;22.30;80.90;;;;;;4949951;28;94254;-49
2022/08/17 05:48:33;;;;;;;96.43;84.93;;;22.30;80.80;;;;;;4946410;28;96800;-50
2022/08/17 05:50:58;;;;;;;;;;;22.40;80.70;;;;;;4946899;28;95176;-48
2022/08/17 05:53:38;;;;;;;108.78;92.07;;;22.40;80.90;;;;;;4956983;28;99274;-47
2022/08/17 05:56:20;;;;;;;100.15;85.38;;;22.40;81.20;;;;;;4954205;28;98121;-46
2022/08/17 05:59:13;;;;;;;111.15;94.25;;;22.50;80.80;;;;;;4953134;28;95177;-48
2022/08/17 06:02:04;;;;;;;108.50;92.40;;;22.60;80.90;;;;;;4940551;28;95599;-51
2022/08/17 06:04:29;;;;;;;100.15;86.50;;;22.70;81.10;;;;;;4946601;28;98462;-49
2022/08/17 06:07:14;;;;;;;103.30;89.38;;;22.70;80.50;;;;;;4941933;28;95532;-49
2022/08/17 06:09:53;;;;;;;114.18;95.10;;;22.70;80.80;;;;;;4952226;28;97269;-51
2022/08/17 06:12:31;;;;;;;107.32;91.38;;;22.70;81.00;;;;;;4945695;28;95911;-51
2022/08/17 06:15:26;;;;;;;117.93;99.70;;;22.70;81.50;;;;;;4946401;28;98139;-50
2022/08/17 06:18:00;;;;;;;94.00;80.57;;;22.70;81.00;;;;;;4944713;28;95343;-51
2022/08/17 06:20:37;;;;;;;113.45;95.50;;;22.70;81.20;;;;;;4946749;28;96372;-53
2022/08/17 06:23:17;;;;;;;92.68;78.30;;;22.90;80.70;;;;;;4957919;28;96230;-52
2022/08/17 06:25:51;;;;;;;104.15;88.22;;;23.00;79.90;;;;;;4956179;28;95175;-52
2022/08/17 06:28:30;;;;;;;106.38;91.72;;;23.00;80.00;;;;;;4927679;28;96167;-59
2022/08/17 06:31:05;;;;;;;88.55;76.32;;;23.30;78.80;;;;;;4940160;28;95979;-54
2022/08/17 06:33:35;;;;;;;109.28;94.03;;;23.30;78.80;;;;;;4932640;28;95468;-52
2022/08/17 06:36:16;;;;;;;105.80;93.38;;;23.30;79.10;;;;;;4935234;28;96110;-51
2022/08/17 06:38:58;;;;;;;97.68;82.18;;;23.40;78.70;;;;;;4935722;28;96958;-55
2022/08/17 06:41:27;;;;;;;82.07;70.43;;;23.10;79.30;;;;;;4934867;28;97184;-57
2022/08/17 06:44:11;;;;;;;111.28;93.53;;;23.20;78.90;;;;;;4937684;28;95786;-58
2022/08/17 06:46:47;;;;;;;110.53;94.20;;;23.30;80.00;;;;;;4937526;28;97430;-56
2022/08/17 06:49:29;;;;;;;113.72;94.95;;;23.20;80.30;;;;;;4934664;28;96465;-56
2022/08/17 06:52:19;;;;;;;111.47;95.45;;;23.10;80.80;;;;;;4931523;28;95781;-57
2022/08/17 06:54:47;;;;;;;111.40;95.13;;;23.10;80.60;;;;;;4936736;28;97005;-55
2022/08/17 06:57:21;;;;;;;110.25;93.03;;;23.10;80.70;;;;;;4935891;28;95909;-56
2022/08/17 06:59:48;;;;;;;126.60;101.32;;;23.00;81.30;;;;;;4939085;28;95204;-55
2022/08/17 07:02:38;;;;;;;134.50;106.65;;;22.90;81.60;;;;;;4931563;28;99122;-56
2022/08/17 07:05:05;;;;;;;135.15;105.75;;;22.80;83.50;;;;;;4924138;28;95188;-55
2022/08/17 07:10:19;;;;;;;128.32;104.78;;;22.90;82.40;;;;;;4931262;28;95187;-56
2022/08/17 07:12:46;;;;;;;114.43;94.72;;;23.00;83.30;;;;;;4932420;28;96754;-57
2022/08/17 07:15:41;;;;;;;127.13;104.10;;;23.10;82.70;;;;;;4930162;28;96201;-57
2022/08/17 07:18:07;;;;;;;130.55;107.30;;;23.10;82.20;;;;;;4927142;28;94817;-57
2022/08/17 07:20:34;;;;;;;131.15;105.18;;;22.90;83.50;;;;;;4929389;28;97316;-56
2022/08/17 07:23:12;;;;;;;135.95;107.68;;;22.80;84.60;;;;;;4933803;28;95379;-56
2022/08/17 07:25:38;;;;;;;133.43;104.53;;;22.90;84.90;;;;;;4933736;28;96273;-57
2022/08/17 07:28:06;;;;;;;131.98;104.65;;;22.90;84.40;;;;;;4933279;28;95886;-57
2022/08/17 07:30:44;;;;;;;119.40;96.25;;;22.90;84.90;;;;;;4933873;28;95564;-57
2022/08/17 07:33:25;;;;;;;87.55;69.32;;;23.00;84.00;;;;;;4932015;28;98681;-57
2022/08/17 07:35:52;;;;;;;106.28;82.82;;;23.30;81.60;;;;;;4932495;28;95592;-57
2022/08/17 07:38:18;;;;;;;119.45;97.13;;;23.60;80.00;;;;;;4932116;28;97646;-57
2022/08/17 07:40:56;;;;;;;121.22;99.05;;;23.70;80.90;;;;;;4935180;28;95744;-57
2022/08/17 07:43:38;;;;;;;122.18;99.78;;;23.60;81.20;;;;;;4935747;28;95492;-57
2022/08/17 07:49:03;;;;;;;119.25;98.63;;;23.40;82.50;;;;;;4935057;28;96203;-57
2022/08/17 07:51:39;;;;;;;126.60;104.72;;;23.40;82.80;;;;;;4929777;28;97064;-56
2022/08/17 07:54:14;;;;;;;108.75;95.30;;;23.40;83.70;;;;;;4930578;28;95958;-55
2022/08/17 07:56:45;;;;;;;113.75;94.32;;;23.40;83.70;;;;;;4930933;28;96078;-57
2022/08/17 07:59:18;;;;;;;105.10;85.60;;;23.30;83.10;;;;;;4934424;28;96785;-57
2022/08/17 08:01:47;;;;;;;113.57;94.90;;;23.50;81.80;;;;;;4938703;28;95742;-57
2022/08/17 08:04:21;;;;;;;102.82;91.40;;;23.80;81.10;;;;;;4931936;28;98078;-56
2022/08/17 08:06:53;;;;;;;98.63;84.03;;;23.80;80.90;;;;;;4931534;28;100246;-55
2022/08/17 08:09:35;;;;;;;95.13;81.15;;;23.80;80.90;;;;;;4933532;28;95223;-57
2022/08/17 08:12:19;;;;;;;103.72;85.78;;;23.80;80.60;;;;;;4931163;28;100360;-57
2022/08/17 08:14:55;;;;;;;97.20;80.90;;;23.70;80.80;;;;;;4930809;28;95560;-56
2022/08/17 08:17:26;;;;;;;93.05;78.40;;;23.80;80.10;;;;;;4933774;28;95395;-57
2022/08/17 08:19:51;;;;;;;;;;;23.80;79.70;;;;;;4932248;28;95522;-57
2022/08/17 08:22:40;;;;;;;97.05;82.22;;;24.10;79.30;;;;;;4939016;28;94906;-57
2022/08/17 08:25:10;;;;;;;82.95;67.97;;;24.20;78.40;;;;;;4913346;28;96041;-57
2022/08/17 08:28:07;;;;;;;95.43;76.15;;;24.20;78.20;;;;;;4930617;28;95955;-56
2022/08/17 08:30:43;;;;;;;92.57;78.10;;;24.20;78.10;;;;;;4933852;28;95783;-57
2022/08/17 08:33:22;;;;;;;90.55;76.00;;;24.20;76.80;;;;;;4929153;28;95807;-56
2022/08/17 08:35:55;;;;;;;86.43;72.97;;;24.30;76.30;;;;;;4931473;28;100649;-57
2022/08/17 08:38:52;;;;;;;86.53;72.68;;;24.40;75.20;;;;;;4931506;28;97058;-56
2022/08/17 08:41:43;;;;;;;88.25;73.95;;;24.40;74.50;;;;;;4933165;28;95413;-58
2022/08/17 08:44:24;;;;;;;82.05;67.18;;;24.40;74.10;;;;;;4933252;28;97127;-56
2022/08/17 08:46:56;;;;;;;89.15;75.57;;;24.40;74.40;;;;;;4933591;28;95566;-56
2022/08/17 08:49:50;;;;;;;91.35;77.68;;;24.50;76.00;;;;;;4932177;28;97341;-57
2022/08/17 08:52:48;;;;;;;88.03;76.13;;;24.60;75.40;;;;;;4932494;28;95087;-58
2022/08/17 08:55:25;;;;;;;81.68;69.40;;;24.60;75.80;;;;;;4909070;28;95485;-56
2022/08/17 08:57:55;;;;;;;89.68;73.60;;;24.60;75.60;;;;;;4931885;28;98850;-56
2022/08/17 09:00:24;;;;;;;84.90;74.05;;;24.60;74.30;;;;;;4932042;28;96905;-57
2022/08/17 09:03:05;;;;;;;88.57;77.22;;;24.60;73.90;;;;;;4928053;28;95934;-56
2022/08/17 09:05:52;;;;;;;87.55;75.18;;;24.60;74.10;;;;;;4928707;28;95082;-54
2022/08/17 09:08:27;;;;;;;85.30;71.97;;;24.60;74.50;;;;;;4931008;28;97122;-54
2022/08/17 09:11:04;;;;;;;86.47;74.00;;;24.60;73.10;;;;;;4936198;28;94943;-56
2022/08/17 09:13:41;;;;;;;83.80;70.68;;;24.50;74.30;;;;;;4930704;28;95236;-56
2022/08/17 09:16:28;;;;;;;85.95;74.05;;;24.40;74.70;;;;;;4932849;28;96647;-55
2022/08/17 09:18:57;;;;;;;78.10;66.07;;;24.40;75.60;;;;;;4938516;28;95338;-56
2022/08/17 09:21:36;;;;;;;84.32;71.22;;;24.50;74.60;;;;;;4930253;28;101451;-56
2022/08/17 09:24:31;;;;;;;86.78;73.45;;;24.60;74.30;;;;;;4928427;28;96774;-55
2022/08/17 09:27:06;;;;;;;84.05;71.07;;;24.60;75.20;;;;;;4932030;28;95460;-56
2022/08/17 09:29:37;;;;;;;80.43;69.13;;;24.60;74.60;;;;;;4928996;28;95861;-56
2022/08/17 09:32:16;;;;;;;80.88;68.50;;;24.60;73.80;;;;;;4931169;28;94953;-55
2022/08/17 09:34:55;;;;;;;75.00;65.20;;;24.60;74.20;;;;;;4933117;28;96974;-57
2022/08/17 09:37:36;;;;;;;72.07;60.38;;;24.60;73.40;;;;;;4933155;28;97317;-55
2022/08/17 09:40:14;;;;;;;72.22;60.45;;;24.60;73.10;;;;;;4931375;28;96173;-57
2022/08/17 09:42:45;;;;;;;82.22;67.72;;;24.80;73.60;;;;;;4933806;28;94624;-56
2022/08/17 09:45:34;;;;;;;72.10;61.17;;;25.00;73.00;;;;;;4929720;28;98064;-56
2022/08/17 09:48:10;;;;;;;80.95;65.75;;;25.00;71.80;;;;;;4933388;28;97860;-55
2022/08/17 09:50:45;;;;;;;72.38;61.03;;;25.10;72.90;;;;;;4931516;28;100790;-57
2022/08/17 09:53:11;;;;;;;74.18;61.63;;;25.10;72.60;;;;;;4933888;28;98401;-55
2022/08/17 09:55:59;;;;;;;81.18;67.53;;;25.20;72.80;;;;;;4925890;28;96750;-56
2022/08/17 09:59:02;;;;;;;82.20;69.75;;;25.20;72.60;;;;;;4931253;28;97191;-56
2022/08/17 10:01:36;;;;;;;80.18;67.72;;;25.20;73.20;;;;;;4929899;28;95743;-57
2022/08/17 10:04:08;;;;;;;81.30;66.45;;;25.20;73.30;;;;;;4930865;28;96133;-57
2022/08/17 10:06:56;;;;;;;73.32;60.35;;;25.10;72.90;;;;;;4931064;28;97938;-58
2022/08/17 10:09:47;;;;;;;71.72;59.10;;;25.20;72.80;;;;;;4932775;28;96703;-57
2022/08/17 10:12:28;;;;;;;72.13;58.67;;;25.40;71.90;;;;;;4933088;28;97214;-57
2022/08/17 10:15:10;;;;;;;81.05;59.80;;;25.50;71.00;;;;;;4938541;28;95691;-57
2022/08/17 10:17:49;;;;;;;75.50;59.50;;;25.60;70.50;;;;;;4930426;28;96004;-57
2022/08/17 10:20:17;;;;;;;73.65;58.72;;;25.70;70.00;;;;;;4937290;28;94707;-57
2022/08/17 10:28:57;;;;;;;73.40;57.50;;;26.00;68.70;;;;;;4934344;28;95712;-56
2022/08/17 10:31:31;;;;;;;74.05;57.63;;;26.00;68.30;;;;;;4940565;28;97308;-57
2022/08/17 10:34:03;;;;;;;71.15;57.50;;;26.00;68.00;;;;;;4937315;28;101722;-58
2022/08/17 10:37:01;;;;;;;72.25;57.47;;;26.10;67.70;;;;;;4934952;28;94450;-57
2022/08/17 10:39:26;;;;;;;70.30;57.35;;;26.10;67.50;;;;;;4930034;28;99003;-58
2022/08/17 10:41:56;;;;;;;79.45;65.80;;;26.20;67.40;;;;;;4929033;28;96188;-58
2022/08/17 10:44:44;;;;;;;77.60;59.08;;;26.10;68.60;;;;;;4928539;28;100410;-52
2022/08/17 10:47:13;;;;;;;78.38;59.22;;;25.80;69.10;;;;;;4926994;28;98283;-55
2022/08/17 10:49:48;;;;;;;77.00;60.13;;;25.50;70.50;;;;;;4934947;28;101056;-56
2022/08/17 10:52:22;;;;;;;76.95;59.42;;;25.70;70.60;;;;;;4927248;28;102026;-53
2022/08/17 10:55:06;;;;;;;75.95;60.22;;;25.80;70.40;;;;;;4930431;28;95793;-55
2022/08/17 10:57:48;;;;;;;80.68;66.72;;;26.00;70.40;;;;;;4927931;28;100134;-53
2022/08/17 11:00:20;;;;;;;75.70;60.78;;;25.90;70.10;;;;;;4932121;28;97797;-57
2022/08/17 11:02:49;;;;;;;76.07;61.17;;;25.80;70.80;;;;;;4931222;28;94119;-58
2022/08/17 11:05:51;;;;;;;76.15;60.95;;;25.70;71.00;;;;;;4932662;28;97424;-55
2022/08/17 11:08:29;;;;;;;76.07;61.13;;;25.70;70.70;;;;;;4930638;28;95899;-53
2022/08/17 11:11:13;;;;;;;72.50;58.72;;;25.70;70.40;;;;;;4931959;28;96178;-52
2022/08/17 11:13:44;;;;;;;75.78;59.83;;;25.70;70.20;;;;;;4926565;28;97017;-56
2022/08/17 11:16:28;;;;;;;73.93;59.55;;;25.70;70.30;;;;;;4927402;28;97422;-50
2022/08/17 11:19:09;;;;;;;74.65;59.53;;;25.70;70.60;;;;;;4927721;28;95814;-52
2022/08/17 11:22:00;;;;;;;73.50;58.67;;;25.70;70.60;;;;;;4925099;28;100557;-56
2022/08/17 11:25:12;;;;;;;75.75;59.35;;;25.80;70.60;;;;;;4929535;28;94997;-56
2022/08/17 11:27:38;;;;;;;71.88;59.30;;;25.80;71.30;;;;;;4904934;28;100872;-54
2022/08/17 11:30:34;;;;;;;73.68;59.75;;;25.80;71.00;;;;;;4932786;28;96430;-56
2022/08/17 11:33:32;;;;;;;72.32;59.60;;;25.90;71.00;;;;;;4932318;28;98319;-53
2022/08/17 11:36:13;;;;;;;74.00;60.58;;;25.80;70.40;;;;;;4927481;28;97801;-54
2022/08/17 11:39:04;;;;;;;72.68;60.55;;;25.80;69.60;;;;;;4926870;28;101521;-55
2022/08/17 11:41:57;;;;;;;73.65;59.90;;;25.90;69.50;;;;;;4926450;28;95752;-57
2022/08/17 11:44:40;;;;;;;74.18;59.20;;;25.90;69.60;;;;;;4910160;28;97149;-56
2022/08/17 11:53:37;;;;;;;73.30;60.28;;;26.00;70.10;;;;;;4924123;28;98416;-53
2022/08/17 11:56:08;;;;;;;73.57;59.88;;;26.00;69.90;;;;;;4929433;28;97474;-53
2022/08/17 11:58:42;;;;;;;72.55;59.35;;;26.00;69.90;;;;;;4933145;28;94803;-53
2022/08/17 12:01:50;;;;;;;74.22;60.40;;;26.10;69.90;;;;;;4935523;28;97771;-51
2022/08/17 12:04:27;;;;;;;72.55;59.55;;;26.10;69.60;;;;;;4885744;28;97494;-48
2022/08/17 12:07:09;;;;;;;72.65;59.72;;;26.00;69.60;;;;;;4933017;28;96034;-57
2022/08/17 12:09:40;;;;;;;76.20;60.47;;;26.10;69.70;;;;;;4932356;28;95234;-50
2022/08/17 12:12:11;;;;;;;78.55;59.78;;;26.10;69.40;;;;;;4933052;28;94772;-57
2022/08/17 12:14:39;;;;;;;72.95;59.80;;;26.10;69.20;;;;;;4935431;28;95977;-51
2022/08/17 12:17:08;;;;;;;73.97;60.42;;;26.10;68.60;;;;;;4929855;28;96446;-53
2022/08/17 12:19:36;;;;;;;74.90;59.47;;;26.10;68.20;;;;;;4929571;28;97511;-58
2022/08/17 12:22:15;;;;;;;73.93;60.05;;;26.10;68.20;;;;;;4924923;28;100187;-51
2022/08/17 12:24:58;;;;;;;74.05;60.13;;;26.20;68.80;;;;;;4930547;28;94668;-58
2022/08/17 12:27:28;;;;;;;75.38;61.78;;;26.20;68.40;;;;;;4928446;28;95130;-61
2022/08/17 12:29:54;;;;;;;72.27;59.40;;;26.20;68.40;;;;;;4948961;28;95461;-59
2022/08/17 12:32:21;;;;;;;72.18;60.03;;;26.20;68.40;;;;;;4950380;28;96308;-60
2022/08/17 12:34:49;;;;;;;75.30;62.95;;;26.20;68.60;;;;;;4943194;28;96980;-60
2022/08/17 12:37:17;;;;;;;76.57;61.72;;;26.20;68.70;;;;;;4944979;28;95223;-59
2022/08/17 12:39:58;;;;;;;74.43;61.58;;;26.20;68.50;;;;;;4953478;28;95273;-59
2022/08/17 12:42:30;;;;;;;;;;;26.20;68.40;;;;;;4947582;28;96040;-57
2022/08/17 12:44:56;;;;;;;77.32;63.97;;;26.20;68.30;;;;;;4952631;28;94833;-56
2022/08/17 12:47:23;;;;;;;83.28;64.35;;;26.20;68.00;;;;;;4943869;28;94606;-59
2022/08/17 12:49:53;;;;;;;74.07;61.15;;;26.30;68.00;;;;;;4952375;28;94480;-56
2022/08/17 12:52:26;;;;;;;74.38;60.67;;;26.20;67.80;;;;;;4945141;28;95348;-56
2022/08/17 12:54:58;;;;;;;75.40;62.03;;;26.20;68.10;;;;;;4948494;28;95141;-59
2022/08/17 12:57:35;;;;;;;73.47;61.03;;;26.30;68.20;;;;;;4942039;28;97792;-52
2022/08/17 13:00:19;;;;;;;73.82;61.55;;;26.30;68.20;;;;;;4947651;28;95046;-55
2022/08/17 13:02:49;;;;;;;75.13;61.95;;;26.40;68.90;;;;;;4947722;28;100973;-56
2022/08/17 13:05:28;;;;;;;77.10;62.23;;;26.40;69.10;;;;;;4952334;28;97007;-54
2022/08/17 13:07:55;;;;;;;77.03;62.53;;;26.50;68.50;;;;;;4950373;28;95083;-54
2022/08/17 13:10:23;;;;;;;75.40;62.05;;;26.50;68.20;;;;;;4945455;28;94789;-53
2022/08/17 13:12:51;;;;;;;80.00;65.68;;;26.50;68.70;;;;;;4945200;28;96681;-59
2022/08/17 13:15:21;;;;;;;77.10;62.53;;;26.50;68.30;;;;;;4949400;28;95801;-58
2022/08/17 13:18:00;;;;;;;75.75;62.05;;;26.50;67.90;;;;;;4948346;28;95232;-57
2022/08/17 13:20:26;;;;;;;74.78;61.85;;;26.50;67.50;;;;;;4953046;28;95000;-59
2022/08/17 13:22:54;;;;;;;78.60;62.60;;;26.60;67.70;;;;;;4948959;28;99114;-53
2022/08/17 13:25:20;;;;;;;79.53;66.22;;;26.60;67.90;;;;;;4948440;28;96579;-57
2022/08/17 13:27:49;;;;;;;78.63;64.57;;;26.60;67.40;;;;;;4956442;28;97564;-52